Time;durP1;ratioP1;P1;durP2;ratioP2;P2;SDS_P1;SDS_P2;PMS_P1;PMS_P2;Temp;Humidity;BMP_temperature;BMP_pressure;BME280_temperature;BME280_humidity;BME280_pressure;Samples;Min_cycle;Max_cycle;Signal;HPM_P1;HPM_P2
2021/07/11 00:01:14;;;;;;;8.00;3.50;;;;;;;;;;5013065;28;20112;-66
2021/07/11 00:03:41;;;;;;;10.95;3.20;;;;;;;;;;5006446;28;20033;-66
2021/07/11 00:06:08;;;;;;;5.63;2.53;;;;;;;;;;5014797;28;20478;-66
2021/07/11 00:08:35;;;;;;;8.52;2.80;;;;;;;;;;4995439;28;20038;-67
2021/07/11 00:11:02;;;;;;;5.38;2.17;;;;;;;;;;5003131;28;20022;-67
2021/07/11 00:13:29;;;;;;;10.05;2.60;;;;;;;;;;5012145;28;20072;-66
2021/07/11 00:15:56;;;;;;;5.28;2.63;;;;;;;;;;5010983;28;20057;-66
2021/07/11 00:18:24;;;;;;;6.93;3.20;;;;;;;;;;5011928;28;20026;-66
2021/07/11 00:20:51;;;;;;;7.32;2.10;;;;;;;;;;5013559;28;20057;-66
2021/07/11 00:23:18;;;;;;;7.53;2.00;;;;;;;;;;5011994;28;20414;-66
2021/07/11 00:25:45;;;;;;;8.00;2.83;;;;;;;;;;5012209;28;20038;-66
2021/07/11 00:28:12;;;;;;;5.95;2.25;;;;;;;;;;5011227;28;20439;-65
2021/07/11 00:30:39;;;;;;;5.28;1.65;;;;;;;;;;5013206;28;20085;-65
2021/07/11 00:33:06;;;;;;;8.05;1.77;;;;;;;;;;5004763;28;20036;-66
2021/07/11 00:35:33;;;;;;;6.85;2.42;;;;;;;;;;4994045;28;20431;-65
2021/07/11 00:38:01;;;;;;;12.77;2.17;;;;;;;;;;5014012;28;20105;-65
2021/07/11 00:40:28;;;;;;;7.15;1.42;;;;;;;;;;5013841;28;20026;-65
2021/07/11 00:42:55;;;;;;;9.50;2.92;;;;;;;;;;5012570;28;20026;-65
2021/07/11 00:45:22;;;;;;;17.25;3.58;;;;;;;;;;5011526;28;20030;-66
2021/07/11 00:47:49;;;;;;;12.85;2.17;;;;;;;;;;5010059;28;20018;-65
2021/07/11 00:50:18;;;;;;;12.32;2.33;;;;;;;;;;5016133;28;20088;-66
2021/07/11 00:52:45;;;;;;;15.48;3.15;;;;;;;;;;5009363;28;20025;-66
2021/07/11 00:55:12;;;;;;;14.15;2.05;;;;;;;;;;4994963;28;20107;-65
2021/07/11 00:57:40;;;;;;;13.07;3.22;;;;;;;;;;4993893;28;20033;-65
2021/07/11 01:00:11;;;;;;;10.88;2.25;;;;;;;;;;5009798;28;20034;-66
2021/07/11 01:02:56;;;;;;;17.65;3.88;;;;;;;;;;5005868;28;20034;-66
2021/07/11 01:05:24;;;;;;;8.98;2.22;;;;;;;;;;5008486;28;20072;-66
2021/07/11 01:07:55;;;;;;;13.48;3.13;;;;;;;;;;5007756;28;20033;-65
2021/07/11 01:10:40;;;;;;;12.60;2.65;;;;;;;;;;5007640;28;20035;-65
2021/07/11 01:13:13;;;;;;;12.43;2.80;;;;;;;;;;5009177;28;20038;-65
2021/07/11 01:15:41;;;;;;;14.10;2.92;;;;;;;;;;5009745;28;20030;-65
2021/07/11 01:18:09;;;;;;;13.90;2.33;;;;;;;;;;5010330;28;20101;-65
2021/07/11 01:20:38;;;;;;;10.55;2.33;;;;;;;;;;5013247;28;20026;-64
2021/07/11 01:23:08;;;;;;;13.75;2.95;;;;;;;;;;5005374;28;20060;-65
2021/07/11 01:25:46;;;;;;;14.38;2.50;;;;;;;;;;5008258;28;20058;-66
2021/07/11 01:28:15;;;;;;;12.68;2.03;;;;;;;;;;5008003;28;20030;-65
2021/07/11 01:30:43;;;;;;;12.82;2.42;;;;;;;;;;4993672;28;20038;-65
2021/07/11 01:33:10;;;;;;;10.60;1.92;;;;;;;;;;5010203;28;20117;-65
2021/07/11 01:35:39;;;;;;;9.45;2.42;;;;;;;;;;5010746;28;20101;-65
2021/07/11 01:38:07;;;;;;;10.43;2.45;;;;;;;;;;5006657;28;20034;-65
2021/07/11 01:40:34;;;;;;;12.35;3.45;;;;;;;;;;5008751;28;20053;-66
2021/07/11 01:43:02;;;;;;;9.50;2.00;;;;;;;;;;5007303;28;20109;-65
2021/07/11 01:45:30;;;;;;;15.20;2.47;;;;;;;;;;5009603;28;20073;-65
2021/07/11 01:47:57;;;;;;;12.25;2.00;;;;;;;;;;5009998;28;20462;-65
2021/07/11 01:50:25;;;;;;;8.68;2.80;;;;;;;;;;5008809;28;20047;-65
2021/07/11 01:52:53;;;;;;;8.57;1.60;;;;;;;;;;4992382;28;20411;-66
2021/07/11 01:55:21;;;;;;;10.00;1.80;;;;;;;;;;5008911;28;20553;-65
2021/07/11 01:57:49;;;;;;;7.45;1.30;;;;;;;;;;5005354;28;20030;-65
2021/07/11 02:00:17;;;;;;;6.43;1.00;;;;;;;;;;5007026;28;20557;-65
2021/07/11 02:02:47;;;;;;;10.02;1.65;;;;;;;;;;5007757;28;20040;-65
2021/07/11 02:05:15;;;;;;;7.75;1.48;;;;;;;;;;5007836;28;20109;-65
2021/07/11 02:07:42;;;;;;;8.40;1.90;;;;;;;;;;5007283;28;20611;-66
2021/07/11 02:10:12;;;;;;;8.57;1.17;;;;;;;;;;5009171;28;20126;-66
2021/07/11 02:12:44;;;;;;;5.57;1.15;;;;;;;;;;4990406;28;20032;-65
2021/07/11 02:15:11;;;;;;;6.32;1.60;;;;;;;;;;5011012;28;20033;-66
2021/07/11 02:17:41;;;;;;;6.15;1.15;;;;;;;;;;5006248;28;20041;-65
2021/07/11 02:20:09;;;;;;;8.50;1.20;;;;;;;;;;5007330;28;20022;-66
2021/07/11 02:22:36;;;;;;;7.10;1.00;;;;;;;;;;5011869;28;20021;-66
2021/07/11 02:25:04;;;;;;;6.53;1.48;;;;;;;;;;5009017;28;20033;-66
2021/07/11 02:27:31;;;;;;;8.85;1.40;;;;;;;;;;5009591;28;20026;-66
2021/07/11 02:29:58;;;;;;;6.53;1.45;;;;;;;;;;5010922;28;20053;-66
2021/07/11 02:32:27;;;;;;;4.35;1.15;;;;;;;;;;5010853;28;20788;-66
2021/07/11 02:34:55;;;;;;;11.48;1.58;;;;;;;;;;5009544;28;20081;-66
2021/07/11 02:37:24;;;;;;;6.32;1.55;;;;;;;;;;5008404;28;20161;-66
2021/07/11 02:39:52;;;;;;;9.80;1.58;;;;;;;;;;5012024;28;20383;-66
2021/07/11 02:42:21;;;;;;;9.15;1.58;;;;;;;;;;5010989;28;20109;-66
2021/07/11 02:44:51;;;;;;;10.02;1.77;;;;;;;;;;5009246;28;20131;-66
2021/07/11 02:47:21;;;;;;;7.25;1.15;;;;;;;;;;5008957;28;20018;-65
2021/07/11 02:49:51;;;;;;;9.27;1.50;;;;;;;;;;5011672;28;20018;-66
2021/07/11 02:52:19;;;;;;;11.10;2.00;;;;;;;;;;5006906;28;20029;-66
2021/07/11 02:54:48;;;;;;;12.63;1.77;;;;;;;;;;5005215;28;20117;-66
2021/07/11 02:57:18;;;;;;;11.90;1.50;;;;;;;;;;5009968;28;20037;-66
2021/07/11 02:59:46;;;;;;;10.02;1.60;;;;;;;;;;5012435;28;20045;-66
2021/07/11 03:02:14;;;;;;;17.50;1.80;;;;;;;;;;5010903;28;20024;-66
2021/07/11 03:04:42;;;;;;;8.27;2.33;;;;;;;;;;5015389;28;20487;-66
2021/07/11 03:07:09;;;;;;;9.00;1.40;;;;;;;;;;4997163;28;20038;-67
2021/07/11 03:09:37;;;;;;;28.45;15.30;;;;;;;;;;5014609;28;20068;-66
2021/07/11 03:12:04;;;;;;;7.68;1.30;;;;;;;;;;5014077;28;20510;-66
2021/07/11 03:14:32;;;;;;;9.65;1.65;;;;;;;;;;5011944;28;20122;-66
2021/07/11 03:17:00;;;;;;;10.75;2.08;;;;;;;;;;5014322;28;20033;-67
2021/07/11 03:19:28;;;;;;;6.47;1.67;;;;;;;;;;5013708;28;20080;-67
2021/07/11 03:21:55;;;;;;;8.50;2.42;;;;;;;;;;5014589;28;20034;-66
2021/07/11 03:24:26;;;;;;;7.63;1.05;;;;;;;;;;5013001;28;20029;-66
2021/07/11 03:26:54;;;;;;;8.80;1.52;;;;;;;;;;5014725;28;20490;-66
2021/07/11 03:29:31;;;;;;;8.55;1.70;;;;;;;;;;5011628;28;20418;-67
2021/07/11 03:31:59;;;;;;;12.80;1.00;;;;;;;;;;5014503;28;20527;-67
2021/07/11 03:34:27;;;;;;;6.75;1.10;;;;;;;;;;5012616;28;20037;-66
2021/07/11 03:36:55;;;;;;;6.10;1.50;;;;;;;;;;5015355;28;20018;-66
2021/07/11 03:39:23;;;;;;;9.90;1.48;;;;;;;;;;5013941;28;20475;-66
2021/07/11 03:41:51;;;;;;;8.20;1.50;;;;;;;;;;5014488;28;20036;-65
2021/07/11 03:44:19;;;;;;;6.32;1.20;;;;;;;;;;5013087;28;20544;-66
2021/07/11 03:46:47;;;;;;;4.53;1.67;;;;;;;;;;5012089;28;20037;-66
2021/07/11 03:49:15;;;;;;;5.15;1.25;;;;;;;;;;5010159;28;20113;-66
2021/07/11 03:51:42;;;;;;;4.03;1.00;;;;;;;;;;4996705;28;20181;-66
2021/07/11 03:54:11;;;;;;;5.22;0.65;;;;;;;;;;5012491;28;20022;-66
2021/07/11 03:56:38;;;;;;;4.90;0.60;;;;;;;;;;5012429;28;20444;-66
2021/07/11 03:59:10;;;;;;;3.10;0.77;;;;;;;;;;5011426;28;20018;-66
2021/07/11 04:01:38;;;;;;;4.72;0.95;;;;;;;;;;5014299;28;20018;-66
2021/07/11 04:04:08;;;;;;;5.30;1.00;;;;;;;;;;5008282;28;20081;-66
2021/07/11 04:06:35;;;;;;;7.13;1.02;;;;;;;;;;5013985;28;20030;-66
2021/07/11 04:09:04;;;;;;;4.35;0.60;;;;;;;;;;5005492;28;20050;-66
2021/07/11 04:11:34;;;;;;;4.43;0.50;;;;;;;;;;5004209;28;20032;-66
2021/07/11 04:14:01;;;;;;;3.17;0.65;;;;;;;;;;5009606;28;20077;-66
2021/07/11 04:16:29;;;;;;;5.55;0.82;;;;;;;;;;5010674;28;20426;-64
2021/07/11 04:18:58;;;;;;;4.60;1.17;;;;;;;;;;5012974;28;20033;-66
2021/07/11 04:21:28;;;;;;;3.72;1.00;;;;;;;;;;5014829;28;20026;-66
2021/07/11 04:23:57;;;;;;;4.95;1.15;;;;;;;;;;5008013;28;20070;-66
2021/07/11 04:26:25;;;;;;;4.32;0.50;;;;;;;;;;5002225;28;20437;-66
2021/07/11 04:28:53;;;;;;;3.92;0.47;;;;;;;;;;5003930;28;20101;-67
2021/07/11 04:31:21;;;;;;;6.32;1.45;;;;;;;;;;5009917;28;20018;-67
2021/07/11 04:33:48;;;;;;;5.53;1.30;;;;;;;;;;5012886;28;20478;-67
2021/07/11 04:36:15;;;;;;;7.53;1.10;;;;;;;;;;5011394;28;20026;-66
2021/07/11 04:38:42;;;;;;;5.00;0.90;;;;;;;;;;5011406;28;20022;-67
2021/07/11 04:41:11;;;;;;;8.30;1.35;;;;;;;;;;5013801;28;20018;-68
2021/07/11 04:43:40;;;;;;;4.57;0.75;;;;;;;;;;5012414;28;20561;-67
2021/07/11 04:46:07;;;;;;;4.47;0.88;;;;;;;;;;5005411;28;20065;-67
2021/07/11 04:48:34;;;;;;;3.17;1.13;;;;;;;;;;5009863;28;20101;-67
2021/07/11 04:51:01;;;;;;;4.45;0.80;;;;;;;;;;5013590;28;20030;-67
2021/07/11 04:53:29;;;;;;;4.03;0.82;;;;;;;;;;5013089;28;20076;-67
2021/07/11 04:55:56;;;;;;;4.85;0.82;;;;;;;;;;4996246;28;20061;-66
2021/07/11 04:58:23;;;;;;;7.90;1.65;;;;;;;;;;5010839;28;20061;-66
2021/07/11 05:00:50;;;;;;;5.07;1.17;;;;;;;;;;5014601;28;20033;-66
2021/07/11 05:03:17;;;;;;;3.08;0.75;;;;;;;;;;5011876;28;20024;-66
2021/07/11 05:05:45;;;;;;;3.92;1.08;;;;;;;;;;5012314;28;20030;-66
2021/07/11 05:08:12;;;;;;;6.63;0.85;;;;;;;;;;5011106;28;20057;-66
2021/07/11 05:10:39;;;;;;;7.35;1.00;;;;;;;;;;5013976;28;20052;-67
2021/07/11 05:13:06;;;;;;;4.00;0.75;;;;;;;;;;5012325;28;20033;-67
2021/07/11 05:15:33;;;;;;;5.72;0.93;;;;;;;;;;5012806;28;20091;-67
2021/07/11 05:18:00;;;;;;;4.68;1.27;;;;;;;;;;5010499;28;20538;-67
2021/07/11 05:20:27;;;;;;;3.08;0.43;;;;;;;;;;5014146;28;20026;-67
2021/07/11 05:22:54;;;;;;;5.57;1.00;;;;;;;;;;5014656;28;20105;-66
2021/07/11 05:25:22;;;;;;;3.20;0.88;;;;;;;;;;5016452;28;20390;-67
2021/07/11 05:27:50;;;;;;;4.35;0.93;;;;;;;;;;5012928;28;20030;-67
2021/07/11 05:30:17;;;;;;;8.32;1.45;;;;;;;;;;5011202;28;20017;-67
2021/07/11 05:32:45;;;;;;;8.27;1.60;;;;;;;;;;5012999;28;20030;-67
2021/07/11 05:35:12;;;;;;;11.23;1.73;;;;;;;;;;5015120;28;20029;-67
2021/07/11 05:37:39;;;;;;;8.57;1.67;;;;;;;;;;5018563;28;20021;-67
2021/07/11 05:40:06;;;;;;;10.05;1.95;;;;;;;;;;5015790;28;20478;-67
2021/07/11 05:42:33;;;;;;;11.52;2.40;;;;;;;;;;5000364;28;20034;-67
2021/07/11 05:45:01;;;;;;;7.35;1.52;;;;;;;;;;5017279;28;20055;-67
2021/07/11 05:47:28;;;;;;;7.55;1.60;;;;;;;;;;5017984;28;20509;-67
2021/07/11 05:49:55;;;;;;;10.65;2.78;;;;;;;;;;5019123;28;20018;-67
2021/07/11 05:52:23;;;;;;;8.32;1.25;;;;;;;;;;5019059;28;20057;-67
2021/07/11 05:54:50;;;;;;;14.35;2.22;;;;;;;;;;5014796;28;20034;-67
2021/07/11 05:57:18;;;;;;;13.63;2.00;;;;;;;;;;5005161;28;20019;-67
2021/07/11 05:59:46;;;;;;;11.88;2.33;;;;;;;;;;5008991;28;20072;-67
2021/07/11 06:02:13;;;;;;;9.57;1.50;;;;;;;;;;5012586;28;20029;-67
2021/07/11 06:04:40;;;;;;;9.20;1.50;;;;;;;;;;5012253;28;20137;-67
2021/07/11 06:07:07;;;;;;;7.05;1.77;;;;;;;;;;5012924;28;20026;-67
2021/07/11 06:09:34;;;;;;;10.23;1.77;;;;;;;;;;5013407;28;20490;-67
2021/07/11 06:12:01;;;;;;;9.68;2.15;;;;;;;;;;5013451;28;20053;-67
2021/07/11 06:14:28;;;;;;;12.65;2.28;;;;;;;;;;5011063;28;20510;-67
2021/07/11 06:16:56;;;;;;;7.70;1.95;;;;;;;;;;5011921;28;20025;-67
2021/07/11 06:19:23;;;;;;;9.57;2.30;;;;;;;;;;5012940;28;20490;-67
2021/07/11 06:21:50;;;;;;;14.60;2.80;;;;;;;;;;4995055;28;20050;-66
2021/07/11 06:24:18;;;;;;;7.85;1.95;;;;;;;;;;5011994;28;20029;-66
2021/07/11 06:26:45;;;;;;;8.73;1.80;;;;;;;;;;5013483;28;20083;-66
2021/07/11 06:29:13;;;;;;;10.68;2.25;;;;;;;;;;5012422;28;20475;-66
2021/07/11 06:31:40;;;;;;;9.88;2.28;;;;;;;;;;5013164;28;20106;-66
2021/07/11 06:34:07;;;;;;;14.82;2.42;;;;;;;;;;5013043;28;20041;-66
2021/07/11 06:36:34;;;;;;;13.35;2.13;;;;;;;;;;5014970;28;20037;-66
2021/07/11 06:39:02;;;;;;;8.75;2.30;;;;;;;;;;5017586;28;20053;-66
2021/07/11 06:41:29;;;;;;;10.07;2.20;;;;;;;;;;5018573;28;20022;-66
2021/07/11 06:43:56;;;;;;;12.43;2.35;;;;;;;;;;5015910;28;20076;-67
2021/07/11 06:46:23;;;;;;;9.98;2.22;;;;;;;;;;5002439;28;20046;-66
2021/07/11 06:48:50;;;;;;;10.95;2.42;;;;;;;;;;5000490;28;20025;-66
2021/07/11 06:51:18;;;;;;;10.05;2.60;;;;;;;;;;5013945;28;20053;-67
2021/07/11 06:53:45;;;;;;;9.70;3.03;;;;;;;;;;5017279;28;20031;-67
2021/07/11 06:56:12;;;;;;;13.45;3.33;;;;;;;;;;5018965;28;20391;-66
2021/07/11 06:58:39;;;;;;;14.63;4.45;;;;;;;;;;5018073;28;20445;-66
2021/07/11 07:01:06;;;;;;;17.27;5.47;;;;;;;;;;5019262;28;20049;-66
2021/07/11 07:03:33;;;;;;;12.88;4.20;;;;;;;;;;5017762;28;20026;-66
2021/07/11 07:06:00;;;;;;;15.57;5.10;;;;;;;;;;5018969;28;20029;-66
2021/07/11 07:08:28;;;;;;;14.32;5.95;;;;;;;;;;4998335;28;20056;-66
2021/07/11 07:10:55;;;;;;;11.70;4.80;;;;;;;;;;5000368;28;20084;-66
2021/07/11 07:13:23;;;;;;;14.23;6.22;;;;;;;;;;5015557;28;20030;-66
2021/07/11 07:15:50;;;;;;;18.95;7.85;;;;;;;;;;5015523;28;20038;-66
2021/07/11 07:18:17;;;;;;;13.85;6.95;;;;;;;;;;5015118;28;20026;-66
2021/07/11 07:20:45;;;;;;;14.57;7.25;;;;;;;;;;5019130;28;20036;-66
2021/07/11 07:23:12;;;;;;;13.52;6.68;;;;;;;;;;5014399;28;20372;-66
2021/07/11 07:25:39;;;;;;;17.85;9.00;;;;;;;;;;5018437;28;20030;-66
2021/07/11 07:28:10;;;;;;;33.13;22.05;;;;;;;;;;5018381;28;20033;-66
2021/07/11 07:30:38;;;;;;;22.13;10.65;;;;;;;;;;5017221;28;20025;-67
2021/07/11 07:33:05;;;;;;;27.83;16.48;;;;;;;;;;5017851;28;20048;-67
2021/07/11 07:35:32;;;;;;;19.38;8.68;;;;;;;;;;5014657;28;20022;-67
2021/07/11 07:37:59;;;;;;;18.52;9.15;;;;;;;;;;5018188;28;20022;-67
2021/07/11 07:40:26;;;;;;;23.35;5.78;;;;;;;;;;4996066;28;20032;-67
2021/07/11 07:42:53;;;;;;;14.38;5.43;;;;;;;;;;5014715;28;20088;-67
2021/07/11 07:45:21;;;;;;;15.07;5.25;;;;;;;;;;5011878;28;20038;-67
2021/07/11 07:47:48;;;;;;;16.60;4.65;;;;;;;;;;5012435;28;20034;-68
2021/07/11 07:50:15;;;;;;;11.68;4.95;;;;;;;;;;5013138;28;20029;-67
2021/07/11 07:52:42;;;;;;;15.45;4.63;;;;;;;;;;5015458;28;20041;-65
2021/07/11 07:55:10;;;;;;;12.25;5.72;;;;;;;;;;5022374;28;20076;-65
2021/07/11 07:57:37;;;;;;;12.77;4.63;;;;;;;;;;5019436;28;20033;-65
2021/07/11 08:00:06;;;;;;;10.93;4.72;;;;;;;;;;4998135;28;20045;-65
2021/07/11 08:02:33;;;;;;;19.05;4.70;;;;;;;;;;5013047;28;20045;-66
2021/07/11 08:05:00;;;;;;;13.85;4.55;;;;;;;;;;5016591;28;20030;-66
2021/07/11 08:07:27;;;;;;;15.77;4.63;;;;;;;;;;5018081;28;20069;-66
2021/07/11 08:09:55;;;;;;;16.63;4.90;;;;;;;;;;5017249;28;20046;-65
2021/07/11 08:12:22;;;;;;;15.73;4.97;;;;;;;;;;4995116;28;20022;-65
2021/07/11 08:14:49;;;;;;;21.65;5.20;;;;;;;;;;5011554;28;20034;-65
2021/07/11 08:17:16;;;;;;;14.23;5.43;;;;;;;;;;5012646;28;20554;-65
2021/07/11 08:19:43;;;;;;;15.32;5.70;;;;;;;;;;5013781;28;20133;-65
2021/07/11 08:28:17;;;;;;;14.10;5.32;;;;;;;;;;5011674;28;20053;-65
2021/07/11 08:30:45;;;;;;;14.43;5.90;;;;;;;;;;5011971;28;20018;-66
2021/07/11 08:33:12;;;;;;;13.98;6.15;;;;;;;;;;5013583;28;20062;-66
2021/07/11 08:35:39;;;;;;;15.05;6.88;;;;;;;;;;5013850;28;20053;-66
2021/07/11 08:38:07;;;;;;;17.40;6.75;;;;;;;;;;5011792;28;20105;-66
2021/07/11 08:40:35;;;;;;;18.27;6.63;;;;;;;;;;5014412;28;20087;-67
2021/07/11 08:43:04;;;;;;;14.30;5.90;;;;;;;;;;5010854;28;20026;-67
2021/07/11 08:45:31;;;;;;;14.75;6.68;;;;;;;;;;5011904;28;20034;-66
2021/07/11 08:47:58;;;;;;;13.95;6.25;;;;;;;;;;5013337;28;20033;-66
2021/07/11 08:50:25;;;;;;;17.95;7.82;;;;;;;;;;5012755;28;20048;-67
2021/07/11 08:52:53;;;;;;;25.38;10.88;;;;;;;;;;5012097;28;20025;-66
2021/07/11 08:55:21;;;;;;;20.50;8.35;;;;;;;;;;5009388;28;20026;-65
2021/07/11 08:57:58;;;;;;;17.88;7.68;;;;;;;;;;5010435;28;20022;-67
2021/07/11 09:00:27;;;;;;;16.02;7.40;;;;;;;;;;5012085;28;20037;-66
2021/07/11 09:02:55;;;;;;;18.30;8.07;;;;;;;;;;5009563;28;20078;-66
2021/07/11 09:05:42;;;;;;;19.60;9.32;;;;;;;;;;5012872;28;20119;-67
2021/07/11 09:08:12;;;;;;;15.52;7.05;;;;;;;;;;5011225;28;20402;-65
2021/07/11 09:10:47;;;;;;;13.68;8.00;;;;;;;;;;5013716;28;20061;-66
2021/07/11 09:13:16;;;;;;;16.55;8.38;;;;;;;;;;5005197;28;20022;-66
2021/07/11 09:15:47;;;;;;;20.52;7.78;;;;;;;;;;5008546;28;20037;-66
2021/07/11 09:18:26;;;;;;;19.80;9.05;;;;;;;;;;5004802;28;20028;-66
2021/07/11 09:20:54;;;;;;;14.48;8.13;;;;;;;;;;5012393;28;20037;-66
2021/07/11 09:23:22;;;;;;;17.77;8.15;;;;;;;;;;5009179;28;20029;-66
2021/07/11 09:26:07;;;;;;;16.25;9.48;;;;;;;;;;5011184;28;20030;-66
2021/07/11 09:28:36;;;;;;;19.35;9.23;;;;;;;;;;5015323;28;20033;-65
2021/07/11 09:31:03;;;;;;;21.90;8.77;;;;;;;;;;5011785;28;20026;-67
2021/07/11 09:33:30;;;;;;;19.65;9.13;;;;;;;;;;5010924;28;20030;-65
2021/07/11 09:36:07;;;;;;;22.20;11.90;;;;;;;;;;5007283;28;20080;-65
2021/07/11 09:38:35;;;;;;;18.00;9.77;;;;;;;;;;5011125;28;20014;-65
2021/07/11 09:41:13;;;;;;;24.30;10.00;;;;;;;;;;5011009;28;20053;-65
2021/07/11 09:43:41;;;;;;;22.98;10.23;;;;;;;;;;5012644;28;20029;-66
2021/07/11 09:46:12;;;;;;;19.08;10.65;;;;;;;;;;4995175;28;20376;-66
2021/07/11 09:48:39;;;;;;;18.88;9.98;;;;;;;;;;5009966;28;20045;-66
2021/07/11 09:51:23;;;;;;;18.10;10.70;;;;;;;;;;5012218;28;20060;-66
2021/07/11 09:53:51;;;;;;;20.45;10.77;;;;;;;;;;5011062;28;20033;-66
2021/07/11 09:56:38;;;;;;;18.23;10.15;;;;;;;;;;5010020;28;20037;-66
2021/07/11 09:59:06;;;;;;;21.17;10.90;;;;;;;;;;5007184;28;20434;-66
2021/07/11 10:01:34;;;;;;;17.75;10.75;;;;;;;;;;5010982;28;20088;-66
2021/07/11 10:04:02;;;;;;;24.67;10.57;;;;;;;;;;5011125;28;20037;-67
2021/07/11 10:06:31;;;;;;;21.60;10.32;;;;;;;;;;5012391;28;20026;-66
2021/07/11 10:08:58;;;;;;;23.58;11.40;;;;;;;;;;5010452;28;20502;-66
2021/07/11 10:11:26;;;;;;;22.50;10.52;;;;;;;;;;5010849;28;20422;-65
2021/07/11 10:13:53;;;;;;;25.23;11.55;;;;;;;;;;5007722;28;20044;-65
2021/07/11 10:16:24;;;;;;;24.40;11.40;;;;;;;;;;5011816;28;20463;-65
2021/07/11 10:18:55;;;;;;;22.38;11.85;;;;;;;;;;5010870;28;20022;-66
2021/07/11 10:21:22;;;;;;;27.67;12.68;;;;;;;;;;5011876;28;20037;-66
2021/07/11 10:23:49;;;;;;;22.42;12.68;;;;;;;;;;5011808;28;20025;-65
2021/07/11 10:26:18;;;;;;;25.08;13.27;;;;;;;;;;5011780;28;20038;-66
2021/07/11 10:28:49;;;;;;;22.90;12.50;;;;;;;;;;5006751;28;20033;-66
2021/07/11 10:31:22;;;;;;;21.83;12.50;;;;;;;;;;5024170;28;20014;-65
2021/07/11 10:33:49;;;;;;;26.85;11.77;;;;;;;;;;5029742;28;20025;-65
2021/07/11 10:36:18;;;;;;;22.45;11.93;;;;;;;;;;5031703;28;20112;-67
2021/07/11 10:38:50;;;;;;;25.95;13.25;;;;;;;;;;5033191;28;20021;-68
2021/07/11 10:41:21;;;;;;;27.92;13.68;;;;;;;;;;5032685;28;20052;-67
2021/07/11 10:44:01;;;;;;;24.77;13.35;;;;;;;;;;5032964;28;20482;-68
2021/07/11 10:46:33;;;;;;;24.10;12.90;;;;;;;;;;5015020;28;20080;-67
2021/07/11 10:49:13;;;;;;;22.40;12.80;;;;;;;;;;5015071;28;20026;-67
2021/07/11 10:51:44;;;;;;;24.50;13.80;;;;;;;;;;5022018;28;20276;-68
2021/07/11 10:54:40;;;;;;;25.15;12.98;;;;;;;;;;5018111;28;20064;-67
2021/07/11 10:57:09;;;;;;;22.55;11.73;;;;;;;;;;5011474;28;20037;-67
2021/07/11 10:59:45;;;;;;;26.85;12.68;;;;;;;;;;5029853;28;20064;-67
2021/07/11 11:02:22;;;;;;;21.65;12.05;;;;;;;;;;5031237;28;20021;-67
2021/07/11 11:05:04;;;;;;;22.00;11.88;;;;;;;;;;5029814;28;20068;-68
2021/07/11 11:07:48;;;;;;;23.90;11.50;;;;;;;;;;5013362;28;20021;-68
2021/07/11 11:10:19;;;;;;;22.65;12.68;;;;;;;;;;5031803;28;20202;-68
2021/07/11 11:12:46;;;;;;;24.05;13.95;;;;;;;;;;5030196;28;20022;-68
2021/07/11 11:15:15;;;;;;;24.45;12.95;;;;;;;;;;5031026;28;20124;-68
2021/07/11 11:17:42;;;;;;;26.98;12.85;;;;;;;;;;5012927;28;20033;-68
2021/07/11 11:20:14;;;;;;;23.48;11.30;;;;;;;;;;5020165;28;20405;-68
2021/07/11 11:22:52;;;;;;;25.67;13.25;;;;;;;;;;5029961;28;20037;-68
2021/07/11 11:25:20;;;;;;;28.27;13.38;;;;;;;;;;5033010;28;20040;-68
2021/07/11 11:27:48;;;;;;;20.58;11.93;;;;;;;;;;5012819;28;20030;-68
2021/07/11 11:30:19;;;;;;;30.38;13.43;;;;;;;;;;5022795;28;20385;-68
2021/07/11 11:32:50;;;;;;;21.70;13.07;;;;;;;;;;4998268;28;20030;-69
2021/07/11 11:35:22;;;;;;;25.13;12.73;;;;;;;;;;5028989;28;20048;-70
2021/07/11 11:37:50;;;;;;;21.40;12.43;;;;;;;;;;5030446;28;20114;-69
2021/07/11 11:40:18;;;;;;;30.92;13.75;;;;;;;;;;5017979;28;20021;-69
2021/07/11 11:42:46;;;;;;;26.42;12.43;;;;;;;;;;5030219;28;20105;-69
2021/07/11 11:45:14;;;;;;;29.95;12.57;;;;;;;;;;5023890;28;20474;-70
2021/07/11 11:47:42;;;;;;;28.73;12.13;;;;;;;;;;5023894;28;20022;-69
2021/07/11 11:50:13;;;;;;;23.88;12.73;;;;;;;;;;5015952;28;20044;-70
2021/07/11 11:52:40;;;;;;;22.92;13.20;;;;;;;;;;5023018;28;20046;-70
2021/07/11 11:55:08;;;;;;;29.77;13.75;;;;;;;;;;5029028;28;20029;-70
2021/07/11 11:57:38;;;;;;;33.08;14.25;;;;;;;;;;5031732;28;20026;-71
2021/07/11 12:00:07;;;;;;;26.20;13.73;;;;;;;;;;5007360;28;20030;-70
2021/07/11 12:02:34;;;;;;;23.85;13.95;;;;;;;;;;5008228;28;20117;-70
2021/07/11 12:05:11;;;;;;;29.45;13.95;;;;;;;;;;5030787;28;20039;-70
2021/07/11 12:07:39;;;;;;;26.40;13.82;;;;;;;;;;5019202;28;20036;-70
2021/07/11 12:10:07;;;;;;;24.65;12.63;;;;;;;;;;5030583;28;20049;-71
2021/07/11 12:12:34;;;;;;;26.23;12.60;;;;;;;;;;5029001;28;20040;-69
2021/07/11 12:15:02;;;;;;;27.95;13.70;;;;;;;;;;5025049;28;20022;-70
2021/07/11 12:17:33;;;;;;;23.92;12.65;;;;;;;;;;5021982;28;20104;-71
2021/07/11 12:20:01;;;;;;;21.50;12.15;;;;;;;;;;5006438;28;20457;-70
2021/07/11 12:22:29;;;;;;;20.50;11.70;;;;;;;;;;5025896;28;20109;-70
2021/07/11 12:25:12;;;;;;;27.75;13.82;;;;;;;;;;5030830;28;20032;-70
2021/07/11 12:27:45;;;;;;;20.63;12.85;;;;;;;;;;5029420;28;20460;-71
2021/07/11 12:30:14;;;;;;;28.95;13.82;;;;;;;;;;5017759;28;20014;-71
2021/07/11 12:32:41;;;;;;;30.67;13.55;;;;;;;;;;5028660;28;20022;-71
2021/07/11 12:35:09;;;;;;;28.00;13.80;;;;;;;;;;5029869;28;20057;-71
2021/07/11 12:37:36;;;;;;;29.83;14.02;;;;;;;;;;5026951;28;20018;-70
2021/07/11 12:40:03;;;;;;;27.83;13.82;;;;;;;;;;5031583;28;20026;-70
2021/07/11 12:42:31;;;;;;;23.50;12.75;;;;;;;;;;5009209;28;20080;-71
2021/07/11 12:44:58;;;;;;;26.27;15.23;;;;;;;;;;5012473;28;20490;-71
2021/07/11 12:47:26;;;;;;;34.70;14.80;;;;;;;;;;5019488;28;20025;-70
2021/07/11 12:50:00;;;;;;;27.08;13.27;;;;;;;;;;5022250;28;20545;-70
2021/07/11 12:52:28;;;;;;;24.83;13.38;;;;;;;;;;5024058;28;20018;-70
2021/07/11 12:54:55;;;;;;;26.75;13.43;;;;;;;;;;5032056;28;20026;-70
2021/07/11 12:57:26;;;;;;;27.73;13.15;;;;;;;;;;5032157;28;20689;-71
2021/07/11 12:59:55;;;;;;;33.35;13.52;;;;;;;;;;5030400;28;20437;-70
2021/07/11 13:02:23;;;;;;;28.88;12.23;;;;;;;;;;5031911;28;20029;-71
2021/07/11 13:05:00;;;;;;;24.35;12.25;;;;;;;;;;5029493;28;20081;-71
2021/07/11 13:07:29;;;;;;;25.05;11.52;;;;;;;;;;5031527;28;20025;-71
2021/07/11 13:09:56;;;;;;;30.30;11.48;;;;;;;;;;5032073;28;20044;-71
2021/07/11 13:12:27;;;;;;;29.55;12.20;;;;;;;;;;5019736;28;20046;-70
2021/07/11 13:14:59;;;;;;;26.65;12.68;;;;;;;;;;5017348;28;20031;-70
2021/07/11 13:17:27;;;;;;;29.90;13.40;;;;;;;;;;5024646;28;20605;-70
2021/07/11 13:19:54;;;;;;;21.83;11.27;;;;;;;;;;5030608;28;20025;-70
2021/07/11 13:22:23;;;;;;;29.42;12.02;;;;;;;;;;5024718;28;20032;-71
2021/07/11 13:24:51;;;;;;;25.27;11.88;;;;;;;;;;5023214;28;20054;-71
2021/07/11 13:27:18;;;;;;;27.00;13.00;;;;;;;;;;5016662;28;20026;-70
2021/07/11 13:29:45;;;;;;;29.33;12.55;;;;;;;;;;5021505;28;20449;-71
2021/07/11 13:32:16;;;;;;;29.67;12.63;;;;;;;;;;5016342;28;20509;-70
2021/07/11 13:34:44;;;;;;;24.08;12.27;;;;;;;;;;5023522;28;20038;-71
2021/07/11 13:37:11;;;;;;;23.55;13.45;;;;;;;;;;5024929;28;20030;-71
2021/07/11 13:39:38;;;;;;;30.70;13.45;;;;;;;;;;5010617;28;20113;-71
2021/07/11 13:42:05;;;;;;;21.60;11.57;;;;;;;;;;5028832;28;20105;-70
2021/07/11 13:44:32;;;;;;;27.50;13.27;;;;;;;;;;5031568;28;20022;-70
2021/07/11 13:46:59;;;;;;;26.67;13.48;;;;;;;;;;5024886;28;20108;-70
2021/07/11 13:49:26;;;;;;;25.98;12.60;;;;;;;;;;5018737;28;20129;-70
2021/07/11 13:51:54;;;;;;;24.75;13.20;;;;;;;;;;5027376;28;20104;-70
2021/07/11 13:54:21;;;;;;;24.65;12.13;;;;;;;;;;5026913;28;20072;-70
2021/07/11 13:56:48;;;;;;;21.55;12.85;;;;;;;;;;5017041;28;20017;-70
2021/07/11 13:59:15;;;;;;;21.77;13.23;;;;;;;;;;5027739;28;20026;-71
2021/07/11 14:01:42;;;;;;;28.77;13.07;;;;;;;;;;5024505;28;20675;-70
2021/07/11 14:04:09;;;;;;;25.52;13.07;;;;;;;;;;5030479;28;20485;-70
2021/07/11 14:06:36;;;;;;;26.42;14.05;;;;;;;;;;5028008;28;20073;-70
2021/07/11 14:09:04;;;;;;;25.35;13.43;;;;;;;;;;5008637;28;20042;-70
2021/07/11 14:11:31;;;;;;;20.65;14.07;;;;;;;;;;5010786;28;20014;-70
2021/07/11 14:13:59;;;;;;;23.95;13.93;;;;;;;;;;5005037;28;20033;-70
2021/07/11 14:16:26;;;;;;;26.27;13.65;;;;;;;;;;5008822;28;20029;-70
2021/07/11 14:18:53;;;;;;;32.05;14.18;;;;;;;;;;5003495;28;20041;-70
2021/07/11 14:21:20;;;;;;;28.58;12.80;;;;;;;;;;5000801;28;20494;-70
2021/07/11 14:23:47;;;;;;;21.88;12.35;;;;;;;;;;5008668;28;20036;-70
2021/07/11 14:26:14;;;;;;;23.63;12.07;;;;;;;;;;4999531;28;20018;-71
2021/07/11 14:28:41;;;;;;;23.10;11.65;;;;;;;;;;5000685;28;20400;-71
2021/07/11 14:31:10;;;;;;;19.58;11.55;;;;;;;;;;4996665;28;20036;-71
2021/07/11 14:33:37;;;;;;;19.67;11.75;;;;;;;;;;5003533;28;20014;-70
2021/07/11 14:36:05;;;;;;;20.30;12.18;;;;;;;;;;5008415;28;20033;-70
2021/07/11 14:38:32;;;;;;;23.88;12.63;;;;;;;;;;5007109;28;20545;-70
2021/07/11 14:40:59;;;;;;;19.58;11.43;;;;;;;;;;5008804;28;20033;-70
2021/07/11 14:43:26;;;;;;;22.77;13.60;;;;;;;;;;5005909;28;20089;-70